Time;durP1;ratioP1;P1;durP2;ratioP2;P2;SDS_P1;SDS_P2;PMS_P1;PMS_P2;Temp;Humidity;BMP_temperature;BMP_pressure;BME280_temperature;BME280_humidity;BME280_pressure;Samples;Min_cycle;Max_cycle;Signal;HPM_P1;HPM_P2
2021/09/02 00:00:22;;;;;;;5.88;3.67;;;17.20;81.90;;;;;;2073095;28;20093;-93
2021/09/02 00:01:41;;;;;;;5.63;3.55;;;17.20;81.90;;;;;;2074932;28;20037;-93
2021/09/02 00:03:01;;;;;;;5.68;3.60;;;17.20;81.90;;;;;;2078979;28;20050;-93
2021/09/02 00:04:20;;;;;;;5.40;3.80;;;17.20;81.90;;;;;;2072984;28;20038;-92
2021/09/02 00:05:40;;;;;;;5.30;4.00;;;17.20;81.90;;;;;;2075031;28;20474;-92
2021/09/02 00:06:59;;;;;;;6.75;4.07;;;17.20;82.00;;;;;;2071386;28;20033;-91
2021/09/02 00:08:18;;;;;;;5.57;3.97;;;17.20;82.10;;;;;;2056884;28;20038;-92
2021/09/02 00:09:38;;;;;;;6.13;4.22;;;17.20;82.10;;;;;;2072833;28;20034;-92
2021/09/02 00:10:57;;;;;;;8.70;4.32;;;17.20;82.20;;;;;;2080033;28;20100;-93
2021/09/02 00:12:17;;;;;;;5.75;4.20;;;17.10;82.20;;;;;;2074524;28;20026;-93
2021/09/02 00:13:37;;;;;;;7.20;4.37;;;17.10;82.30;;;;;;2069906;28;20161;-92
2021/09/02 00:14:56;;;;;;;7.07;4.30;;;17.10;82.30;;;;;;2069498;28;20030;-92
2021/09/02 00:16:15;;;;;;;7.32;4.47;;;17.10;82.50;;;;;;2061763;28;20039;-93
2021/09/02 00:17:35;;;;;;;7.65;4.40;;;17.10;82.50;;;;;;2060805;28;20038;-92
2021/09/02 00:18:54;;;;;;;5.97;4.05;;;17.10;82.60;;;;;;2074356;28;20034;-92
2021/09/02 00:20:14;;;;;;;6.30;4.18;;;17.10;82.60;;;;;;2070786;28;20050;-92
2021/09/02 00:21:33;;;;;;;10.30;4.78;;;17.00;82.60;;;;;;2062992;28;20043;-92
2021/09/02 00:22:52;;;;;;;6.05;4.38;;;17.10;82.70;;;;;;2070414;28;20038;-92
2021/09/02 00:24:12;;;;;;;6.10;4.38;;;17.00;82.90;;;;;;2068635;28;20034;-93
2021/09/02 00:25:31;;;;;;;7.07;4.60;;;17.10;82.80;;;;;;2072134;28;20029;-91
2021/09/02 00:26:51;;;;;;;7.15;4.80;;;17.10;82.80;;;;;;2067018;28;20054;-92
2021/09/02 00:28:10;;;;;;;6.20;4.50;;;17.00;82.80;;;;;;2064100;28;20026;-92
2021/09/02 00:29:30;;;;;;;6.45;4.30;;;17.00;82.80;;;;;;2063816;28;20038;-92
2021/09/02 00:30:49;;;;;;;6.75;4.50;;;17.00;82.80;;;;;;2073529;28;20092;-93
2021/09/02 00:32:10;;;;;;;7.57;4.53;;;17.00;82.90;;;;;;2070849;28;20018;-93
2021/09/02 00:33:29;;;;;;;6.03;4.25;;;17.00;83.00;;;;;;2069700;28;20042;-93
2021/09/02 00:34:49;;;;;;;6.97;4.95;;;17.00;83.00;;;;;;2069287;28;20030;-93
2021/09/02 00:36:08;;;;;;;7.15;4.93;;;17.00;83.10;;;;;;2066593;28;20033;-93
2021/09/02 00:37:27;;;;;;;7.22;5.00;;;17.00;83.10;;;;;;2070445;28;20037;-92
2021/09/02 00:38:46;;;;;;;7.25;4.72;;;17.00;83.10;;;;;;2060661;28;20066;-93
2021/09/02 00:40:07;;;;;;;7.90;4.70;;;17.00;83.10;;;;;;2069776;28;20037;-93
2021/09/02 00:41:26;;;;;;;7.32;5.35;;;17.00;83.30;;;;;;2071440;28;20030;-92
2021/09/02 00:42:46;;;;;;;7.45;4.88;;;17.00;83.30;;;;;;2064515;28;20035;-93
2021/09/02 00:44:05;;;;;;;7.63;4.90;;;16.90;83.30;;;;;;2055130;28;20165;-93
2021/09/02 00:45:24;;;;;;;8.27;5.35;;;16.90;83.40;;;;;;2061628;28;20033;-93
2021/09/02 00:46:43;;;;;;;7.38;5.38;;;16.90;83.50;;;;;;2073314;28;20034;-92
2021/09/02 00:48:03;;;;;;;7.53;4.97;;;16.90;83.50;;;;;;2072149;28;20558;-93
2021/09/02 00:49:23;;;;;;;7.10;4.88;;;16.90;83.50;;;;;;2066925;28;20034;-93
2021/09/02 00:50:42;;;;;;;7.95;4.45;;;16.90;83.50;;;;;;2064095;28;20035;-93
2021/09/02 00:52:03;;;;;;;6.50;4.78;;;16.90;83.60;;;;;;2078423;28;20030;-93
2021/09/02 00:53:24;;;;;;;6.55;4.53;;;16.90;83.60;;;;;;2074359;28;20022;-94
2021/09/02 00:54:46;;;;;;;6.60;4.50;;;16.90;83.60;;;;;;2062760;28;20038;-93
2021/09/02 00:56:06;;;;;;;5.65;4.30;;;16.90;83.60;;;;;;2077714;28;20104;-93
2021/09/02 00:57:29;;;;;;;7.22;4.72;;;16.90;83.60;;;;;;2076827;28;20069;-93
2021/09/02 00:58:48;;;;;;;7.32;4.85;;;16.90;83.60;;;;;;2082493;28;20026;-92
2021/09/02 01:00:12;;;;;;;7.20;5.00;;;16.90;83.60;;;;;;2059543;28;20046;-94
2021/09/02 01:01:31;;;;;;;6.40;4.65;;;16.80;83.60;;;;;;2072445;28;20447;-93
2021/09/02 01:02:50;;;;;;;5.53;4.40;;;16.80;83.70;;;;;;2081954;28;20054;-93
2021/09/02 01:04:10;;;;;;;7.38;4.63;;;16.80;83.70;;;;;;2087626;28;20026;-93
2021/09/02 01:05:29;;;;;;;6.90;4.28;;;16.80;83.70;;;;;;2074176;28;20034;-93
2021/09/02 01:06:49;;;;;;;7.28;4.50;;;16.80;83.80;;;;;;2076369;28;20029;-92
2021/09/02 01:08:09;;;;;;;5.70;4.25;;;16.80;83.80;;;;;;2073607;28;20046;-92
2021/09/02 01:09:31;;;;;;;8.77;4.57;;;16.80;83.80;;;;;;2066469;28;20034;-93
2021/09/02 01:10:51;;;;;;;6.82;4.80;;;16.80;83.80;;;;;;2073803;28;20026;-93
2021/09/02 01:12:37;;;;;;;6.55;4.32;;;16.80;83.80;;;;;;2061390;28;20050;-93
2021/09/02 01:13:56;;;;;;;6.35;4.40;;;16.80;83.90;;;;;;2083343;28;20049;-93
2021/09/02 01:15:18;;;;;;;6.85;4.57;;;16.80;83.90;;;;;;2066036;28;20026;-93
2021/09/02 01:16:38;;;;;;;7.18;4.80;;;16.70;83.90;;;;;;2080556;28;20025;-92
2021/09/02 01:17:59;;;;;;;6.95;4.57;;;16.70;83.90;;;;;;2066250;28;20038;-93
2021/09/02 01:19:21;;;;;;;6.30;4.15;;;16.70;84.10;;;;;;2077128;28;20041;-92
2021/09/02 01:20:41;;;;;;;7.40;4.53;;;16.70;84.10;;;;;;2069131;28;20106;-92
2021/09/02 01:22:00;;;;;;;7.30;4.70;;;16.70;84.10;;;;;;2067481;28;20054;-93
2021/09/02 01:23:22;;;;;;;6.07;4.40;;;16.70;84.10;;;;;;2076211;28;20041;-92
2021/09/02 01:24:43;;;;;;;6.30;4.28;;;16.60;84.10;;;;;;2080170;28;20026;-93
2021/09/02 01:26:15;;;;;;;6.22;4.50;;;16.70;84.20;;;;;;2068603;28;20035;-93
2021/09/02 01:27:35;;;;;;;6.75;4.68;;;16.60;84.20;;;;;;2081484;28;20089;-94
2021/09/02 01:28:55;;;;;;;6.60;4.32;;;16.60;84.30;;;;;;2072767;28;20038;-93
2021/09/02 01:30:15;;;;;;;7.97;4.90;;;16.60;84.20;;;;;;2069086;28;20057;-93
2021/09/02 01:31:34;;;;;;;6.85;4.60;;;16.60;84.30;;;;;;2060583;28;20047;-93
2021/09/02 01:32:54;;;;;;;6.00;4.53;;;16.60;84.30;;;;;;2070216;28;20038;-93
2021/09/02 01:34:17;;;;;;;5.85;4.15;;;16.60;84.30;;;;;;2076760;28;20038;-92
2021/09/02 01:35:36;;;;;;;7.40;4.55;;;16.70;84.30;;;;;;2086879;28;20018;-93
2021/09/02 01:36:56;;;;;;;7.18;4.72;;;16.70;84.20;;;;;;2082352;28;20034;-93
2021/09/02 01:38:15;;;;;;;8.25;4.40;;;16.70;84.20;;;;;;2068866;28;20026;-92
2021/09/02 01:39:34;;;;;;;6.70;4.43;;;16.70;84.10;;;;;;2067280;28;20046;-93
2021/09/02 01:40:54;;;;;;;5.95;4.10;;;16.70;84.10;;;;;;2069437;28;20031;-90
2021/09/02 01:42:14;;;;;;;7.97;4.45;;;16.70;84.10;;;;;;2078657;28;20038;-93
2021/09/02 01:43:33;;;;;;;6.30;3.78;;;16.70;84.10;;;;;;2082757;28;20025;-94
2021/09/02 01:44:52;;;;;;;7.63;4.53;;;16.60;84.10;;;;;;2072564;28;20042;-93
2021/09/02 01:46:12;;;;;;;6.00;3.90;;;16.60;84.10;;;;;;2080711;28;20026;-93
2021/09/02 01:47:31;;;;;;;10.13;4.82;;;16.60;84.10;;;;;;2082723;28;20025;-93
2021/09/02 01:48:55;;;;;;;6.55;4.20;;;16.60;84.20;;;;;;2082448;28;20037;-93
2021/09/02 01:50:18;;;;;;;6.57;4.10;;;16.60;84.30;;;;;;2079411;28;20033;-93
2021/09/02 01:51:37;;;;;;;7.28;4.18;;;16.60;84.30;;;;;;2086656;28;20045;-93
2021/09/02 01:53:00;;;;;;;8.90;4.50;;;16.60;84.30;;;;;;2077807;28;20041;-92
2021/09/02 01:54:19;;;;;;;7.30;4.20;;;16.60;84.30;;;;;;2077296;28;20034;-93
2021/09/02 01:55:40;;;;;;;7.85;4.53;;;16.60;84.30;;;;;;2081233;28;20034;-92
2021/09/02 01:57:04;;;;;;;4.90;3.70;;;16.50;84.30;;;;;;2089683;28;20033;-94
2021/09/02 01:58:23;;;;;;;7.60;4.50;;;16.50;84.30;;;;;;2077316;28;20042;-93
2021/09/02 01:59:42;;;;;;;6.15;4.13;;;16.60;84.40;;;;;;2070583;28;20078;-92
2021/09/02 02:01:02;;;;;;;6.78;4.18;;;16.50;84.30;;;;;;2070629;28;20018;-92
2021/09/02 02:02:21;;;;;;;8.25;3.90;;;16.60;84.40;;;;;;2080278;28;20018;-93
2021/09/02 02:03:41;;;;;;;5.97;4.28;;;16.60;84.40;;;;;;2081116;28;20531;-91
2021/09/02 02:05:00;;;;;;;5.85;3.90;;;16.50;84.30;;;;;;2086793;28;20013;-92
2021/09/02 02:06:19;;;;;;;6.03;4.00;;;16.50;84.30;;;;;;2092829;28;20033;-91
2021/09/02 02:07:39;;;;;;;6.13;4.05;;;16.60;84.40;;;;;;2077047;28;20026;-91
2021/09/02 02:08:59;;;;;;;6.30;4.50;;;16.60;84.30;;;;;;2090953;28;20064;-90
2021/09/02 02:10:22;;;;;;;6.03;3.80;;;16.60;84.30;;;;;;2087388;28;20129;-88
2021/09/02 02:11:41;;;;;;;6.07;3.90;;;16.50;84.30;;;;;;2084815;28;20053;-88
2021/09/02 02:13:02;;;;;;;5.80;4.00;;;16.60;84.40;;;;;;2078799;28;20021;-91
2021/09/02 02:14:21;;;;;;;4.95;3.55;;;16.60;84.40;;;;;;2080693;28;20014;-90
2021/09/02 02:15:41;;;;;;;7.00;3.92;;;16.60;84.30;;;;;;2082385;28;20037;-93
2021/09/02 02:17:01;;;;;;;6.37;4.10;;;16.60;84.30;;;;;;2081009;28;20034;-92
2021/09/02 02:18:20;;;;;;;6.55;4.10;;;16.60;84.30;;;;;;2077701;28;20284;-92
2021/09/02 02:19:40;;;;;;;6.13;3.72;;;16.60;84.20;;;;;;2086601;28;20057;-93
2021/09/02 02:20:59;;;;;;;7.35;4.38;;;16.60;84.20;;;;;;2079521;28;20034;-92
2021/09/02 02:22:19;;;;;;;7.00;4.20;;;16.60;84.20;;;;;;2082274;28;20053;-93
2021/09/02 02:23:38;;;;;;;6.35;3.95;;;16.60;84.20;;;;;;2089369;28;20036;-92
2021/09/02 02:24:57;;;;;;;6.55;4.00;;;16.60;84.20;;;;;;2081020;28;20049;-92
2021/09/02 02:26:16;;;;;;;6.50;4.22;;;16.60;84.20;;;;;;2080280;28;20049;-92
2021/09/02 02:27:36;;;;;;;6.25;4.20;;;16.60;84.20;;;;;;2077344;28;20094;-92
2021/09/02 02:28:56;;;;;;;6.13;4.15;;;16.60;84.30;;;;;;2081268;28;20016;-91
2021/09/02 02:30:17;;;;;;;6.53;4.25;;;16.60;84.30;;;;;;2088516;28;20013;-90
2021/09/02 02:31:37;;;;;;;6.43;4.03;;;16.50;84.30;;;;;;2097976;28;20069;-91
2021/09/02 02:32:56;;;;;;;6.05;3.90;;;16.60;84.40;;;;;;2084973;28;20018;-90
2021/09/02 02:34:17;;;;;;;5.15;3.45;;;16.50;84.40;;;;;;2089145;28;20026;-92
2021/09/02 02:35:37;;;;;;;6.68;4.00;;;16.50;84.50;;;;;;2087650;28;20507;-92
2021/09/02 02:36:56;;;;;;;6.22;3.90;;;16.50;84.60;;;;;;2077317;28;20010;-92
2021/09/02 02:38:16;;;;;;;6.60;4.05;;;16.50;84.60;;;;;;2078968;28;20026;-93
2021/09/02 02:39:38;;;;;;;5.70;3.78;;;16.50;84.60;;;;;;2076747;28;20042;-92
2021/09/02 02:40:57;;;;;;;5.65;3.50;;;16.50;84.60;;;;;;2089573;28;20032;-93
2021/09/02 02:42:17;;;;;;;5.05;3.65;;;16.50;84.60;;;;;;2088562;28;20036;-92
2021/09/02 02:43:36;;;;;;;5.13;3.50;;;16.50;84.60;;;;;;2085554;28;20037;-92
2021/09/02 02:44:56;;;;;;;5.65;3.63;;;16.50;85.10;;;;;;2074198;28;20272;-92
2021/09/02 02:46:16;;;;;;;5.10;3.35;;;16.50;84.50;;;;;;2087166;28;20057;-92
2021/09/02 02:47:35;;;;;;;5.18;3.55;;;16.50;84.50;;;;;;2073187;28;20208;-92
2021/09/02 02:48:55;;;;;;;6.22;3.60;;;16.50;84.50;;;;;;2086359;28;20025;-92
2021/09/02 02:50:14;;;;;;;5.85;3.45;;;16.60;84.50;;;;;;2083968;28;20029;-92
2021/09/02 02:51:35;;;;;;;5.65;3.38;;;16.60;84.50;;;;;;2079993;28;20029;-92
2021/09/02 02:52:55;;;;;;;5.22;3.30;;;16.60;84.50;;;;;;2083932;28;20033;-92
2021/09/02 02:54:15;;;;;;;5.78;3.58;;;16.60;84.50;;;;;;2084226;28;20034;-93
2021/09/02 02:55:34;;;;;;;6.18;3.70;;;16.60;84.40;;;;;;2086320;28;20005;-91
2021/09/02 02:56:53;;;;;;;6.38;3.78;;;16.60;84.50;;;;;;2081962;28;20022;-92
2021/09/02 02:58:13;;;;;;;4.95;3.40;;;16.60;84.50;;;;;;2086457;28;20013;-90
2021/09/02 02:59:32;;;;;;;5.32;3.40;;;16.50;84.40;;;;;;2073157;28;20034;-91
2021/09/02 03:00:52;;;;;;;5.60;3.60;;;16.60;84.50;;;;;;2088339;28;20017;-92
2021/09/02 03:02:11;;;;;;;6.18;3.60;;;16.60;84.50;;;;;;2089155;28;20037;-93
2021/09/02 03:03:32;;;;;;;6.50;3.63;;;16.60;85.10;;;;;;2076180;28;20105;-92
2021/09/02 03:04:52;;;;;;;6.05;3.75;;;16.60;84.50;;;;;;2077800;28;20029;-93
2021/09/02 03:06:14;;;;;;;5.15;3.70;;;16.60;84.50;;;;;;2066843;28;20030;-93
2021/09/02 03:07:34;;;;;;;6.57;3.65;;;16.60;84.60;;;;;;2083354;28;20041;-93
2021/09/02 03:08:54;;;;;;;7.78;4.03;;;16.50;84.60;;;;;;2089418;28;20014;-91
2021/09/02 03:10:15;;;;;;;6.38;4.00;;;16.50;84.60;;;;;;2070495;28;20042;-91
2021/09/02 03:11:35;;;;;;;6.25;3.88;;;16.60;84.70;;;;;;2083855;28;20013;-92
2021/09/02 03:12:54;;;;;;;5.28;3.92;;;16.50;84.70;;;;;;2072798;28;20018;-93
2021/09/02 03:14:13;;;;;;;6.05;3.80;;;16.50;84.70;;;;;;2074041;28;20022;-91
2021/09/02 03:15:33;;;;;;;5.43;3.78;;;16.60;84.80;;;;;;2072629;28;20073;-92
2021/09/02 03:16:52;;;;;;;5.57;3.70;;;16.50;84.80;;;;;;2085251;28;20018;-92
2021/09/02 03:18:12;;;;;;;7.57;3.90;;;16.60;84.80;;;;;;2079195;28;20086;-94
2021/09/02 03:19:31;;;;;;;5.97;3.40;;;16.50;84.80;;;;;;2079167;28;20030;-90
2021/09/02 03:20:51;;;;;;;7.63;4.30;;;16.60;84.80;;;;;;2084548;28;20022;-92
2021/09/02 03:22:10;;;;;;;6.38;3.90;;;16.60;84.80;;;;;;2080333;28;20030;-90
2021/09/02 03:23:30;;;;;;;6.93;4.18;;;16.60;84.80;;;;;;2072798;28;20070;-90
2021/09/02 03:24:49;;;;;;;7.03;4.65;;;16.50;84.80;;;;;;2084425;28;20033;-91
2021/09/02 03:26:08;;;;;;;7.82;4.40;;;16.60;84.90;;;;;;2068980;28;20030;-93
2021/09/02 03:27:27;;;;;;;6.88;4.43;;;16.50;84.90;;;;;;2074558;28;20041;-91
2021/09/02 03:28:47;;;;;;;7.80;4.32;;;16.50;84.90;;;;;;2073792;28;20029;-91
2021/09/02 03:30:08;;;;;;;6.13;4.00;;;16.50;84.90;;;;;;2073634;28;20042;-92
2021/09/02 03:31:28;;;;;;;6.53;3.92;;;16.60;84.90;;;;;;2075576;28;20069;-92
2021/09/02 03:32:47;;;;;;;7.22;4.25;;;16.50;84.90;;;;;;2074376;28;20034;-91
2021/09/02 03:34:06;;;;;;;5.90;3.58;;;16.60;84.90;;;;;;2059785;28;20039;-91
2021/09/02 03:35:26;;;;;;;6.18;4.03;;;16.60;84.90;;;;;;2070910;28;20021;-92
2021/09/02 03:36:46;;;;;;;6.85;4.40;;;16.50;84.90;;;;;;2070203;28;20023;-91
2021/09/02 03:38:06;;;;;;;6.68;4.03;;;16.60;85.00;;;;;;2060879;28;20039;-91
2021/09/02 03:39:26;;;;;;;;;;;16.50;84.90;;;;;;2063534;28;20043;-91
2021/09/02 03:40:45;;;;;;;6.32;3.67;;;16.50;84.80;;;;;;2076609;28;19913;-92
2021/09/02 03:42:04;;;;;;;6.18;3.28;;;16.50;84.90;;;;;;2072174;28;20041;-92
2021/09/02 03:43:24;;;;;;;5.88;3.67;;;16.50;84.90;;;;;;2061285;28;20030;-92
2021/09/02 03:44:44;;;;;;;6.20;3.90;;;16.50;85.00;;;;;;2073096;28;20034;-91
2021/09/02 03:46:03;;;;;;;7.10;4.15;;;16.50;85.00;;;;;;2072788;28;20034;-91
2021/09/02 03:47:22;;;;;;;6.35;4.10;;;16.50;85.00;;;;;;2067037;28;20595;-91
2021/09/02 03:48:43;;;;;;;5.80;3.92;;;16.50;85.00;;;;;;2063109;28;20026;-92
2021/09/02 03:50:03;;;;;;;;;;;16.50;85.10;;;;;;2069146;28;20038;-91
2021/09/02 03:51:22;;;;;;;7.60;4.00;;;16.50;85.00;;;;;;2063046;28;20752;-91
2021/09/02 03:52:42;;;;;;;7.00;4.10;;;16.50;85.00;;;;;;2069633;28;20484;-92
2021/09/02 03:54:02;;;;;;;7.13;3.78;;;16.40;85.00;;;;;;2071683;28;20030;-92
2021/09/02 03:55:21;;;;;;;6.38;4.00;;;16.50;85.10;;;;;;2072220;28;20057;-91
2021/09/02 03:56:40;;;;;;;8.05;4.22;;;16.40;85.10;;;;;;2072098;28;20034;-92
2021/09/02 03:57:59;;;;;;;6.47;4.40;;;16.40;85.10;;;;;;2071602;28;20101;-92
2021/09/02 03:59:18;;;;;;;5.63;3.60;;;16.40;85.10;;;;;;2071640;28;20030;-91
2021/09/02 04:00:39;;;;;;;6.90;4.40;;;16.50;85.20;;;;;;2080987;28;20042;-91
2021/09/02 04:01:59;;;;;;;;;;;16.40;85.20;;;;;;2078542;28;20034;-91
2021/09/02 04:03:19;;;;;;;6.80;3.85;;;16.40;85.00;;;;;;2091883;28;19905;-90
2021/09/02 04:04:39;;;;;;;5.10;3.83;;;16.40;85.10;;;;;;2080123;28;20026;-91
2021/09/02 04:05:58;;;;;;;7.35;4.28;;;16.40;85.10;;;;;;2077823;28;20022;-90
2021/09/02 04:07:19;;;;;;;6.57;4.15;;;16.40;85.10;;;;;;2080654;28;20054;-90
2021/09/02 04:08:38;;;;;;;6.30;4.10;;;16.40;85.20;;;;;;2089904;28;20025;-89
2021/09/02 04:09:57;;;;;;;6.38;4.03;;;16.40;85.20;;;;;;2084163;28;20030;-90
2021/09/02 04:11:17;;;;;;;6.57;4.47;;;16.40;85.20;;;;;;2093727;28;20017;-88
2021/09/02 04:12:37;;;;;;;7.70;4.13;;;16.40;85.30;;;;;;2090108;28;20037;-90
2021/09/02 04:13:56;;;;;;;7.90;4.97;;;16.40;85.30;;;;;;2081575;28;20029;-90
2021/09/02 04:15:15;;;;;;;6.72;4.15;;;16.40;85.30;;;;;;2078507;28;20014;-91
2021/09/02 04:16:34;;;;;;;6.32;4.13;;;16.40;85.40;;;;;;2086572;28;20017;-92
2021/09/02 04:17:53;;;;;;;7.10;4.25;;;16.40;85.40;;;;;;2084526;28;20045;-93
2021/09/02 04:19:13;;;;;;;5.95;3.97;;;16.40;85.40;;;;;;2078359;28;20069;-91
2021/09/02 04:20:32;;;;;;;5.35;3.80;;;16.40;85.50;;;;;;2078998;28;20033;-92
2021/09/02 04:21:52;;;;;;;6.50;4.22;;;16.40;85.50;;;;;;2080626;28;20043;-92
2021/09/02 04:23:11;;;;;;;6.18;4.05;;;16.30;85.40;;;;;;2075332;28;20014;-92
2021/09/02 04:24:31;;;;;;;7.32;4.20;;;16.30;85.40;;;;;;2093709;28;20037;-93
2021/09/02 04:25:50;;;;;;;6.50;4.07;;;16.40;85.50;;;;;;2079309;28;20057;-92
2021/09/02 04:27:11;;;;;;;6.57;4.00;;;16.40;85.50;;;;;;2080914;28;20041;-92
2021/09/02 04:28:31;;;;;;;7.20;4.00;;;16.30;85.40;;;;;;2080048;28;20022;-92
2021/09/02 04:29:50;;;;;;;6.50;4.20;;;16.40;85.50;;;;;;2082019;28;20016;-89
2021/09/02 04:31:10;;;;;;;6.22;3.90;;;16.40;85.50;;;;;;2079802;28;20038;-90
2021/09/02 04:32:29;;;;;;;6.90;4.30;;;16.40;85.50;;;;;;2078919;28;20074;-92
2021/09/02 04:33:48;;;;;;;6.15;3.83;;;16.40;85.50;;;;;;2085531;28;20026;-90
2021/09/02 04:35:10;;;;;;;6.25;3.80;;;16.40;85.50;;;;;;2085884;28;20029;-90
2021/09/02 04:36:30;;;;;;;5.97;3.90;;;16.40;85.40;;;;;;2075205;28;20038;-91
2021/09/02 04:37:49;;;;;;;6.65;4.53;;;16.40;85.40;;;;;;2080301;28;20025;-93
2021/09/02 04:39:09;;;;;;;6.15;4.10;;;16.40;85.40;;;;;;2071155;28;20038;-91
2021/09/02 04:40:28;;;;;;;5.28;3.78;;;16.40;85.40;;;;;;2084083;28;20029;-92
2021/09/02 04:41:47;;;;;;;7.03;4.03;;;16.40;85.40;;;;;;2090651;28;20540;-90
2021/09/02 04:43:07;;;;;;;7.00;4.43;;;16.40;85.40;;;;;;2082748;28;20018;-92
2021/09/02 04:44:26;;;;;;;7.40;4.40;;;16.40;85.40;;;;;;2081912;28;20029;-92
2021/09/02 04:45:46;;;;;;;5.75;4.00;;;16.40;85.40;;;;;;2087200;28;20021;-92
2021/09/02 04:47:05;;;;;;;7.55;4.32;;;16.30;85.40;;;;;;2089587;28;20021;-93
2021/09/02 04:48:26;;;;;;;6.05;3.90;;;16.30;85.30;;;;;;2079205;28;20038;-93
2021/09/02 04:49:45;;;;;;;9.00;4.28;;;16.30;85.30;;;;;;2076806;28;20520;-91
2021/09/02 04:51:04;;;;;;;6.40;4.13;;;16.30;85.40;;;;;;2083263;28;20093;-92
2021/09/02 04:52:24;;;;;;;6.43;4.30;;;16.30;85.40;;;;;;2085629;28;20033;-93
2021/09/02 04:53:44;;;;;;;6.45;4.25;;;16.30;85.40;;;;;;2085403;28;20037;-92
2021/09/02 04:55:05;;;;;;;7.07;3.80;;;16.30;85.40;;;;;;2082066;28;20101;-92
2021/09/02 04:56:24;;;;;;;6.22;4.05;;;16.30;85.40;;;;;;2085870;28;20029;-91
2021/09/02 04:57:44;;;;;;;7.00;4.18;;;16.30;85.40;;;;;;2071908;28;20053;-92
2021/09/02 04:59:03;;;;;;;6.40;3.70;;;16.30;85.40;;;;;;2079961;28;20052;-91
2021/09/02 05:00:22;;;;;;;7.18;4.38;;;16.30;85.40;;;;;;2080609;28;20034;-90
2021/09/02 05:01:42;;;;;;;6.95;4.32;;;16.30;85.40;;;;;;2075101;28;20041;-91
2021/09/02 05:03:01;;;;;;;7.13;4.03;;;16.30;85.40;;;;;;2063128;28;20050;-91
2021/09/02 05:04:20;;;;;;;5.95;3.80;;;16.30;85.40;;;;;;2068477;28;20038;-91
2021/09/02 05:05:39;;;;;;;7.68;4.10;;;16.20;85.40;;;;;;2065523;28;20412;-91
2021/09/02 05:06:59;;;;;;;8.00;4.25;;;16.20;85.50;;;;;;2073013;28;20034;-91
2021/09/02 05:08:18;;;;;;;6.47;4.00;;;16.20;85.40;;;;;;2063150;28;20030;-91
2021/09/02 05:09:38;;;;;;;6.60;4.30;;;16.20;85.40;;;;;;2059318;28;20042;-92
2021/09/02 05:10:57;;;;;;;8.45;4.30;;;16.20;85.40;;;;;;2056415;28;20509;-91
2021/09/02 05:12:18;;;;;;;8.10;4.30;;;16.20;85.50;;;;;;2066386;28;20030;-91
2021/09/02 05:13:37;;;;;;;7.05;4.00;;;16.20;85.50;;;;;;2074360;28;20516;-90
2021/09/02 05:14:56;;;;;;;6.13;3.95;;;16.20;85.50;;;;;;2068897;28;20034;-91
2021/09/02 05:16:16;;;;;;;7.28;3.95;;;16.20;85.50;;;;;;2067675;28;20026;-91
2021/09/02 05:17:35;;;;;;;6.82;3.95;;;16.20;85.50;;;;;;2084653;28;20030;-91
2021/09/02 05:18:54;;;;;;;7.53;4.10;;;16.20;85.50;;;;;;2074688;28;20030;-91
2021/09/02 05:20:15;;;;;;;7.20;4.00;;;16.20;85.50;;;;;;2069821;28;20038;-91
2021/09/02 05:21:34;;;;;;;6.25;3.78;;;16.20;85.50;;;;;;2073270;28;20006;-89
2021/09/02 05:22:53;;;;;;;8.27;3.83;;;16.20;85.40;;;;;;2066754;28;20035;-91
2021/09/02 05:24:12;;;;;;;7.25;3.78;;;16.20;85.40;;;;;;2067678;28;20039;-90
2021/09/02 05:25:32;;;;;;;7.00;3.90;;;16.20;85.30;;;;;;2066155;28;20046;-91
2021/09/02 05:26:52;;;;;;;6.30;3.88;;;16.20;85.30;;;;;;2057996;28;20035;-91
2021/09/02 05:28:11;;;;;;;6.20;3.63;;;16.20;85.30;;;;;;2073659;28;20523;-93
2021/09/02 05:29:30;;;;;;;6.75;3.28;;;16.20;85.40;;;;;;2069057;28;20034;-91
2021/09/02 05:30:49;;;;;;;6.57;3.70;;;16.20;85.30;;;;;;2074873;28;20037;-91
2021/09/02 05:32:09;;;;;;;5.88;3.53;;;16.20;85.40;;;;;;2069320;28;20034;-91
2021/09/02 05:33:29;;;;;;;8.73;3.92;;;16.20;85.30;;;;;;2063133;28;20110;-91
2021/09/02 05:34:48;;;;;;;6.30;3.42;;;16.10;85.20;;;;;;2062313;28;20031;-90
2021/09/02 05:36:07;;;;;;;6.32;3.25;;;16.20;85.20;;;;;;2065805;28;20046;-91
2021/09/02 05:37:26;;;;;;;6.35;3.40;;;16.10;85.20;;;;;;2068617;28;20030;-90
2021/09/02 05:38:46;;;;;;;8.68;3.47;;;16.10;85.20;;;;;;2068071;28;20038;-90
2021/09/02 05:40:06;;;;;;;6.60;3.60;;;16.20;85.20;;;;;;2074531;28;20038;-91
2021/09/02 05:41:26;;;;;;;6.05;3.20;;;16.20;85.20;;;;;;2073442;28;20066;-91
2021/09/02 05:42:45;;;;;;;5.38;2.97;;;16.10;85.20;;;;;;2060808;28;20038;-91
2021/09/02 05:44:06;;;;;;;5.22;3.00;;;16.20;85.20;;;;;;2064312;28;20042;-91
2021/09/02 05:45:26;;;;;;;6.20;3.30;;;16.20;85.10;;;;;;2076406;28;20006;-90
2021/09/02 05:46:45;;;;;;;8.85;3.75;;;16.20;85.10;;;;;;2069507;28;20038;-91
2021/09/02 05:48:05;;;;;;;6.50;3.65;;;16.20;85.00;;;;;;2077211;28;20026;-90
2021/09/02 05:49:24;;;;;;;5.57;3.13;;;16.20;84.90;;;;;;2080488;28;20022;-90
2021/09/02 05:50:43;;;;;;;5.53;3.00;;;16.20;84.90;;;;;;2072591;28;20034;-90
2021/09/02 05:52:03;;;;;;;6.75;3.17;;;16.20;84.90;;;;;;2073815;28;20109;-91
2021/09/02 05:53:23;;;;;;;5.03;3.03;;;16.20;84.90;;;;;;2073196;28;20034;-90
2021/09/02 05:54:42;;;;;;;7.10;3.20;;;16.20;84.90;;;;;;2074547;28;20034;-89
2021/09/02 05:56:02;;;;;;;4.72;2.95;;;16.20;84.90;;;;;;2078671;28;20029;-88
2021/09/02 05:57:22;;;;;;;5.97;3.08;;;16.20;84.90;;;;;;2081736;28;20010;-86
2021/09/02 05:58:41;;;;;;;5.20;2.88;;;16.20;84.90;;;;;;2075926;28;20033;-88
2021/09/02 06:00:01;;;;;;;6.95;3.00;;;16.20;84.80;;;;;;2071758;28;20054;-87
2021/09/02 06:01:20;;;;;;;5.13;2.58;;;16.20;84.80;;;;;;2083045;28;20034;-87
2021/09/02 06:02:39;;;;;;;5.13;2.67;;;16.20;84.80;;;;;;2079231;28;20033;-86
2021/09/02 06:03:59;;;;;;;5.78;2.65;;;16.30;84.90;;;;;;2083002;28;20101;-87
2021/09/02 06:05:18;;;;;;;4.55;2.78;;;16.30;84.80;;;;;;2090802;28;20028;-86
2021/09/02 06:06:38;;;;;;;5.30;2.90;;;16.30;84.70;;;;;;2090137;28;20021;-87
2021/09/02 06:07:58;;;;;;;5.50;2.75;;;16.30;84.60;;;;;;2084109;28;20029;-86
2021/09/02 06:09:17;;;;;;;6.35;2.80;;;16.30;84.50;;;;;;2090218;28;20024;-87
2021/09/02 06:10:36;;;;;;;5.63;3.17;;;16.30;84.50;;;;;;2096204;28;20029;-86
2021/09/02 06:11:56;;;;;;;7.15;2.97;;;16.30;84.50;;;;;;2095999;28;20029;-86
2021/09/02 06:13:15;;;;;;;4.38;2.60;;;16.40;84.40;;;;;;2088997;28;20033;-86
2021/09/02 06:14:34;;;;;;;5.90;2.67;;;16.40;84.40;;;;;;2073103;28;20031;-87
2021/09/02 06:15:54;;;;;;;7.72;3.15;;;16.30;84.30;;;;;;2076381;28;20046;-87
2021/09/02 06:17:13;;;;;;;5.60;2.78;;;16.40;84.20;;;;;;2090071;28;20550;-87
2021/09/02 06:18:32;;;;;;;6.60;2.67;;;16.40;84.20;;;;;;2076583;28;20034;-87
2021/09/02 06:19:51;;;;;;;4.40;2.38;;;16.30;84.10;;;;;;2082756;28;20054;-87
2021/09/02 06:21:11;;;;;;;4.35;2.35;;;16.30;84.00;;;;;;2085965;28;20030;-86
2021/09/02 06:22:30;;;;;;;5.70;2.50;;;16.40;84.00;;;;;;2078346;28;20037;-87
2021/09/02 06:23:49;;;;;;;3.63;2.20;;;16.30;83.90;;;;;;2076548;28;20030;-87
2021/09/02 06:25:09;;;;;;;4.63;2.53;;;16.40;83.90;;;;;;2093388;28;20089;-87
2021/09/02 06:26:28;;;;;;;3.50;2.03;;;16.40;83.90;;;;;;2077778;28;20037;-87
2021/09/02 06:27:48;;;;;;;5.07;2.20;;;16.40;83.70;;;;;;2068636;28;20038;-87
2021/09/02 06:29:07;;;;;;;3.67;2.20;;;16.50;83.70;;;;;;2085261;28;20025;-87
2021/09/02 06:30:27;;;;;;;4.65;2.10;;;16.50;83.50;;;;;;2076850;28;20025;-86
2021/09/02 06:31:47;;;;;;;6.50;2.60;;;16.50;83.40;;;;;;2067380;28;20411;-86
2021/09/02 06:33:06;;;;;;;5.25;2.47;;;16.50;83.30;;;;;;2082115;28;20029;-86
2021/09/02 06:34:25;;;;;;;3.72;2.15;;;16.50;83.20;;;;;;2086124;28;20033;-86
2021/09/02 06:35:44;;;;;;;5.50;2.70;;;16.60;83.10;;;;;;2076426;28;20029;-86
2021/09/02 06:37:04;;;;;;;4.55;2.17;;;16.60;82.90;;;;;;2071991;28;20531;-87
2021/09/02 06:38:24;;;;;;;3.50;2.00;;;16.60;82.90;;;;;;2073830;28;20026;-86
2021/09/02 06:39:43;;;;;;;3.63;2.00;;;16.60;82.90;;;;;;2071635;28;20049;-86
2021/09/02 06:41:02;;;;;;;3.72;2.00;;;16.60;82.80;;;;;;2069561;28;20038;-87
2021/09/02 06:42:21;;;;;;;4.15;2.30;;;16.70;82.60;;;;;;2071094;28;20049;-86
2021/09/02 06:43:40;;;;;;;3.50;1.98;;;16.70;82.50;;;;;;2067556;28;20034;-87
2021/09/02 06:45:00;;;;;;;3.03;1.88;;;16.80;82.30;;;;;;2074815;28;20467;-87
2021/09/02 06:46:20;;;;;;;4.10;2.10;;;16.80;82.20;;;;;;2071731;28;20030;-87
2021/09/02 06:47:40;;;;;;;3.95;1.75;;;16.90;82.10;;;;;;2076918;28;20038;-86
2021/09/02 06:48:59;;;;;;;4.13;2.00;;;16.90;81.90;;;;;;2079497;28;20491;-86
2021/09/02 06:50:19;;;;;;;5.63;2.00;;;17.00;81.80;;;;;;2076167;28;20038;-86
2021/09/02 06:51:39;;;;;;;5.22;2.08;;;17.00;81.60;;;;;;2078316;28;20037;-86
2021/09/02 06:52:59;;;;;;;4.57;1.90;;;17.00;81.60;;;;;;2073661;28;20042;-86
2021/09/02 06:54:18;;;;;;;4.22;2.10;;;17.10;81.50;;;;;;2071854;28;20037;-86
2021/09/02 06:55:37;;;;;;;4.70;2.17;;;17.10;81.40;;;;;;2068451;28;20033;-86